YPLM

Learmonth

Airport
ICAO code
YPLM
Summary
ICAO Region
APAC
ICAO Territory
Location

Exmouth, Western Australia

Serving
Exmouth
Coordinates
22° 13' 59" S , 114° 5' 31" E
KCC
Airport WX
Tropical Revolving Storm
Metar
YPLM 230300Z AUTO 13006KT 9999 // BKN089 OVC105 24/15 Q1020

RAAF Learmonth, also known as Learmonth Airport, is a joint use Royal Australian Air Force base and civil airport. It is located near the town of Exmouth on the north-west coast of Western Australia.

As an RAAF base, Learmonth is one of the RAAF's three 'bare bases'. No Air Force units are currently based at Learmonth and it is maintained by a small caretaker staff during peacetime.

Climatology

Hot Desert Climate (Köppen climate classification BWh) - Hot desert climates are typically found in the subtropics where there is unbroken sunshine for the whole year due to the stable descending air and high pressure, little or no precipitation. Maximum temperatures of 40°C to 45°C are not uncommon, particularly during the warmer months of the year. During colder periods of the year, night-time temperatures can drop towards freezing due to the exceptional radiation loss under the clear skies.

Airport map

Aerial View

SKYbrary Partners:

Safety knowledge contributed by: